Time;durP1;ratioP1;P1;durP2;ratioP2;P2;SDS_P1;SDS_P2;PMS_P1;PMS_P2;Temp;Humidity;BMP_temperature;BMP_pressure;BME280_temperature;BME280_humidity;BME280_pressure;Samples;Min_cycle;Max_cycle;Signal;HPM_P1;HPM_P2
2021/07/09 00:01:56;;;;;;;0.10;0.10;;;15.00;99.90;;;;;;5052770;28;20029;-73
2021/07/09 00:04:24;;;;;;;0.00;0.00;;;15.10;99.90;;;;;;5034550;28;20060;-73
2021/07/09 00:06:51;;;;;;;0.08;0.08;;;14.80;99.90;;;;;;5052690;28;20096;-73
2021/07/09 00:09:18;;;;;;;0.00;0.00;;;14.70;99.90;;;;;;5018368;28;20044;-73
2021/07/09 00:11:49;;;;;;;0.10;0.10;;;14.60;99.90;;;;;;5034743;28;20017;-73
2021/07/09 00:14:17;;;;;;;0.30;0.30;;;14.70;99.90;;;;;;5034745;28;20029;-73
2021/07/09 00:16:47;;;;;;;0.10;0.10;;;14.60;99.90;;;;;;5052515;28;20029;-73
2021/07/09 00:19:14;;;;;;;0.13;0.13;;;14.50;99.90;;;;;;5052361;28;20028;-73
2021/07/09 00:21:40;;;;;;;0.03;0.03;;;14.60;99.90;;;;;;5018016;28;20028;-73
2021/07/09 00:24:08;;;;;;;0.00;0.00;;;14.50;99.90;;;;;;5018088;28;20040;-73
2021/07/09 00:26:34;;;;;;;2.17;0.45;;;14.50;99.90;;;;;;5052005;28;20028;-73
2021/07/09 00:29:00;;;;;;;0.00;0.00;;;14.70;99.90;;;;;;5034413;28;20033;-73
2021/07/09 00:31:31;;;;;;;0.10;0.10;;;14.80;99.90;;;;;;5052255;28;20035;-73
2021/07/09 00:34:05;;;;;;;0.05;0.05;;;14.80;99.90;;;;;;5017749;28;20404;-73
2021/07/09 00:36:33;;;;;;;0.10;0.10;;;14.80;99.90;;;;;;5034347;28;20046;-73
2021/07/09 00:39:00;;;;;;;0.05;0.05;;;14.90;99.90;;;;;;5017594;28;20365;-73
2021/07/09 00:41:26;;;;;;;0.03;0.03;;;14.90;99.90;;;;;;5017779;28;20039;-73
2021/07/09 00:43:52;;;;;;;0.00;0.00;;;14.90;99.90;;;;;;5052149;28;20029;-73
2021/07/09 00:46:29;;;;;;;0.10;0.10;;;14.70;99.90;;;;;;5017635;28;20035;-73
2021/07/09 00:48:55;;;;;;;0.00;0.00;;;14.70;99.90;;;;;;5034028;28;20534;-73
2021/07/09 00:51:20;;;;;;;0.00;0.00;;;14.60;99.90;;;;;;5034231;28;20096;-73
2021/07/09 00:53:46;;;;;;;0.00;0.00;;;14.60;99.90;;;;;;5034028;28;20031;-73
2021/07/09 00:56:13;;;;;;;0.10;0.10;;;14.70;99.90;;;;;;5051924;28;20471;-73
2021/07/09 00:58:38;;;;;;;0.00;0.00;;;14.60;99.90;;;;;;5033757;28;20032;-73
2021/07/09 01:01:04;;;;;;;0.10;0.10;;;14.50;99.90;;;;;;5051820;28;20043;-73
2021/07/09 01:03:30;;;;;;;0.00;0.00;;;14.60;99.90;;;;;;5051803;28;20025;-73
2021/07/09 01:05:56;;;;;;;0.03;0.03;;;14.50;99.90;;;;;;5033842;28;20481;-73
2021/07/09 01:08:21;;;;;;;0.00;0.00;;;14.60;99.90;;;;;;5033699;28;20033;-73
2021/07/09 01:10:48;;;;;;;0.00;0.00;;;14.90;99.90;;;;;;5033968;28;20029;-73
2021/07/09 01:13:14;;;;;;;0.00;0.00;;;14.90;99.90;;;;;;5033740;28;20029;-73
2021/07/09 01:15:40;;;;;;;0.03;0.03;;;14.90;99.90;;;;;;5033936;28;20383;-73
2021/07/09 01:18:06;;;;;;;0.00;0.00;;;14.90;99.90;;;;;;5037899;28;20108;-73
2021/07/09 01:20:32;;;;;;;0.10;0.10;;;14.60;99.90;;;;;;5038271;28;20021;-73
2021/07/09 01:22:59;;;;;;;0.10;0.10;;;14.40;99.90;;;;;;5037947;28;20036;-73
2021/07/09 01:25:26;;;;;;;0.20;0.10;;;14.30;99.90;;;;;;5055564;28;20051;-72
2021/07/09 01:27:56;;;;;;;0.08;0.08;;;14.30;99.90;;;;;;5021308;28;20417;-73
2021/07/09 01:30:23;;;;;;;0.17;0.17;;;14.20;99.90;;;;;;5037889;28;20024;-73
2021/07/09 01:32:49;;;;;;;0.30;0.10;;;14.10;99.90;;;;;;5055559;28;20087;-73
2021/07/09 01:35:16;;;;;;;0.25;0.25;;;13.90;99.90;;;;;;5055558;28;20025;-73
2021/07/09 01:37:55;;;;;;;0.00;0.00;;;13.80;99.90;;;;;;5037399;28;20027;-73
2021/07/09 01:40:21;;;;;;;0.00;0.00;;;13.80;99.90;;;;;;5037758;28;20021;-73
2021/07/09 01:42:47;;;;;;;0.10;0.10;;;13.90;99.90;;;;;;5068750;22;20045;-75
2021/07/09 01:45:12;;;;;;;0.00;0.00;;;13.80;99.90;;;;;;5052973;28;20029;-75
2021/07/09 01:47:39;;;;;;;0.45;0.20;;;13.90;99.90;;;;;;5053883;28;20025;-75
2021/07/09 01:50:06;;;;;;;0.00;0.00;;;13.90;99.90;;;;;;5054054;28;20035;-75
2021/07/09 01:52:31;;;;;;;0.10;0.10;;;14.00;99.90;;;;;;5053816;28;20060;-74
2021/07/09 01:54:59;;;;;;;0.17;0.17;;;14.00;99.90;;;;;;5053795;28;20064;-75
2021/07/09 01:57:26;;;;;;;0.03;0.03;;;13.90;99.90;;;;;;5035815;28;20099;-74
2021/07/09 01:59:52;;;;;;;0.10;0.10;;;13.70;99.90;;;;;;5053890;28;20445;-74
2021/07/09 02:02:18;;;;;;;0.10;0.10;;;13.70;99.90;;;;;;5053745;28;20102;-74
2021/07/09 02:05:04;;;;;;;0.10;0.10;;;13.70;99.90;;;;;;5053762;28;20029;-74
2021/07/09 02:07:30;;;;;;;0.10;0.10;;;13.70;99.90;;;;;;5035805;28;20024;-75
2021/07/09 02:09:56;;;;;;;0.10;0.10;;;13.70;99.90;;;;;;5035687;28;20476;-75
2021/07/09 02:12:23;;;;;;;0.10;0.10;;;13.70;99.90;;;;;;5053675;28;20116;-74
2021/07/09 02:14:50;;;;;;;0.17;0.17;;;13.60;99.90;;;;;;5053542;28;20021;-74
2021/07/09 02:17:18;;;;;;;0.00;0.00;;;13.70;99.90;;;;;;5035647;28;20447;-74
2021/07/09 02:19:44;;;;;;;0.00;0.00;;;13.70;99.90;;;;;;5053397;28;20025;-75
2021/07/09 02:22:12;;;;;;;0.40;0.32;;;13.60;99.90;;;;;;5053443;28;20021;-74
2021/07/09 02:24:45;;;;;;;0.00;0.00;;;13.70;99.90;;;;;;5035617;28;20025;-75
2021/07/09 02:27:12;;;;;;;0.05;0.05;;;13.70;99.90;;;;;;5053050;28;20020;-75
2021/07/09 02:29:39;;;;;;;0.20;0.20;;;13.80;99.90;;;;;;5035426;28;20123;-74
2021/07/09 02:32:08;;;;;;;0.10;0.10;;;13.70;99.90;;;;;;5018956;28;20025;-74
2021/07/09 02:34:35;;;;;;;0.00;0.00;;;13.70;99.90;;;;;;5053501;28;20434;-75
2021/07/09 02:37:01;;;;;;;0.13;0.13;;;13.80;99.90;;;;;;5053285;28;20049;-74
2021/07/09 02:39:27;;;;;;;0.10;0.10;;;13.90;99.90;;;;;;5053100;28;20052;-74
2021/07/09 02:44:32;;;;;;;1.25;0.38;;;13.90;99.90;;;;;;5089454;28;20398;-76
2021/07/09 02:46:58;;;;;;;0.20;0.20;;;13.80;99.90;;;;;;5088204;28;20031;-76
2021/07/09 02:49:24;;;;;;;0.10;0.10;;;13.80;99.90;;;;;;5088122;28;20055;-76
2021/07/09 02:51:50;;;;;;;0.08;0.08;;;13.90;99.90;;;;;;5089483;28;20418;-76
2021/07/09 02:54:16;;;;;;;0.65;0.32;;;13.80;99.90;;;;;;5089370;28;20034;-76
2021/07/09 02:56:42;;;;;;;0.10;0.10;;;13.80;99.90;;;;;;5089255;28;20024;-76
2021/07/09 02:59:08;;;;;;;0.00;0.00;;;13.90;99.90;;;;;;5089227;28;20028;-76
2021/07/09 03:01:34;;;;;;;0.00;0.00;;;14.00;99.90;;;;;;5089122;28;20021;-76
2021/07/09 03:04:00;;;;;;;0.20;0.20;;;14.10;99.90;;;;;;5087696;28;20029;-76
2021/07/09 03:06:26;;;;;;;0.10;0.10;;;14.00;99.90;;;;;;5087928;28;20602;-76
2021/07/09 03:08:52;;;;;;;0.00;0.00;;;14.00;99.90;;;;;;5088941;28;20047;-76
2021/07/09 03:11:18;;;;;;;0.20;0.20;;;14.10;99.90;;;;;;5088866;28;20021;-76
2021/07/09 03:13:44;;;;;;;0.17;0.17;;;14.20;99.90;;;;;;5088996;28;20024;-76
2021/07/09 03:16:10;;;;;;;0.10;0.10;;;14.20;99.90;;;;;;5088983;28;20032;-76
2021/07/09 03:18:36;;;;;;;0.10;0.10;;;14.00;99.90;;;;;;5088865;28;20024;-76
2021/07/09 03:21:03;;;;;;;0.00;0.00;;;14.10;99.90;;;;;;5070611;28;20464;-76
2021/07/09 03:23:28;;;;;;;0.10;0.10;;;14.10;99.90;;;;;;5088716;28;20067;-76
2021/07/09 03:25:57;;;;;;;0.10;0.10;;;14.10;99.90;;;;;;5088569;28;20048;-76
2021/07/09 03:28:23;;;;;;;0.10;0.10;;;14.00;99.90;;;;;;5087645;28;20475;-76
2021/07/09 03:30:49;;;;;;;0.10;0.10;;;14.00;99.90;;;;;;5087312;28;20030;-76
2021/07/09 03:33:15;;;;;;;0.10;0.10;;;14.00;99.90;;;;;;5088797;28;20028;-76
2021/07/09 03:35:41;;;;;;;0.00;0.00;;;14.00;99.90;;;;;;5088596;28;20059;-76
2021/07/09 03:38:06;;;;;;;0.10;0.10;;;13.90;99.90;;;;;;5088228;28;20036;-76
2021/07/09 03:40:32;;;;;;;0.10;0.10;;;13.90;99.90;;;;;;5087227;28;20391;-76
2021/07/09 03:42:58;;;;;;;0.17;0.17;;;13.80;99.90;;;;;;5086773;28;20186;-76
2021/07/09 03:45:24;;;;;;;0.20;0.17;;;13.80;99.90;;;;;;5088369;28;20016;-76
2021/07/09 03:47:49;;;;;;;0.10;0.10;;;13.80;99.90;;;;;;5070121;28;20074;-76
2021/07/09 03:50:15;;;;;;;0.00;0.00;;;13.70;99.90;;;;;;5088340;28;20025;-76
2021/07/09 03:52:41;;;;;;;0.00;0.00;;;13.80;99.90;;;;;;5086833;28;20025;-76
2021/07/09 03:55:08;;;;;;;0.10;0.10;;;13.80;99.90;;;;;;5079168;28;20032;-76
2021/07/09 03:57:34;;;;;;;0.52;0.17;;;13.80;99.90;;;;;;5074564;28;20479;-76
2021/07/09 04:00:00;;;;;;;0.00;0.00;;;13.70;99.90;;;;;;5074576;28;20075;-76
2021/07/09 04:02:26;;;;;;;0.10;0.10;;;13.80;99.90;;;;;;5074526;28;20066;-76
2021/07/09 04:04:52;;;;;;;0.10;0.10;;;13.80;99.90;;;;;;5073260;28;20044;-76
2021/07/09 04:07:17;;;;;;;0.08;0.08;;;13.70;99.90;;;;;;5074251;28;20429;-77
2021/07/09 04:09:43;;;;;;;0.00;0.00;;;13.70;99.90;;;;;;5073235;28;20043;-76
2021/07/09 04:12:09;;;;;;;0.00;0.00;;;13.70;99.90;;;;;;5074353;28;20071;-76
2021/07/09 04:14:34;;;;;;;0.00;0.00;;;13.70;99.90;;;;;;5056330;28;20052;-76
2021/07/09 04:17:00;;;;;;;5.13;0.10;;;13.70;99.90;;;;;;5074298;28;20031;-76
2021/07/09 04:19:26;;;;;;;0.10;0.10;;;13.60;99.90;;;;;;5074253;28;20017;-76
2021/07/09 04:21:52;;;;;;;0.00;0.00;;;13.60;99.90;;;;;;5072874;28;20074;-76
2021/07/09 04:24:17;;;;;;;0.20;0.20;;;13.50;99.90;;;;;;5074078;28;20020;-76
2021/07/09 04:26:43;;;;;;;0.10;0.10;;;13.50;99.90;;;;;;5073941;28;20025;-76
2021/07/09 04:29:09;;;;;;;0.00;0.00;;;13.50;99.90;;;;;;5073858;28;20024;-76
2021/07/09 04:31:35;;;;;;;0.10;0.10;;;13.60;99.90;;;;;;5074077;28;20024;-76
2021/07/09 04:34:00;;;;;;;0.13;0.13;;;13.50;99.90;;;;;;5073960;28;20035;-76
2021/07/09 04:36:26;;;;;;;0.10;0.10;;;13.50;99.90;;;;;;5069773;28;20061;-76
2021/07/09 04:38:53;;;;;;;0.47;0.30;;;13.60;99.90;;;;;;5049701;28;20041;-76
2021/07/09 04:41:19;;;;;;;0.20;0.20;;;13.60;99.90;;;;;;5071603;28;20376;-76
2021/07/09 04:43:44;;;;;;;0.00;0.00;;;13.60;99.90;;;;;;5071836;28;20033;-76
2021/07/09 04:46:10;;;;;;;0.05;0.05;;;13.70;99.90;;;;;;5071524;28;20025;-76
2021/07/09 04:48:36;;;;;;;0.00;0.00;;;13.70;99.90;;;;;;5071900;28;20035;-76
2021/07/09 04:51:02;;;;;;;0.25;0.20;;;13.80;99.90;;;;;;5071318;28;20028;-76
2021/07/09 04:53:28;;;;;;;0.10;0.10;;;14.00;99.90;;;;;;5070624;28;20078;-76
2021/07/09 04:55:54;;;;;;;0.35;0.32;;;13.90;99.90;;;;;;5067949;28;20091;-76
2021/07/09 04:58:20;;;;;;;0.10;0.10;;;13.90;99.90;;;;;;5072375;28;20064;-76
2021/07/09 05:00:45;;;;;;;0.17;0.17;;;14.10;99.90;;;;;;5071742;28;20020;-76
2021/07/09 05:03:11;;;;;;;0.10;0.10;;;14.20;99.90;;;;;;5072475;28;20029;-76
2021/07/09 05:05:37;;;;;;;0.00;0.00;;;14.20;99.90;;;;;;5071166;28;20086;-76
2021/07/09 05:08:04;;;;;;;0.08;0.08;;;14.40;99.90;;;;;;5070869;28;20494;-76
2021/07/09 05:10:29;;;;;;;0.20;0.15;;;14.40;99.90;;;;;;5070201;28;20031;-76
2021/07/09 05:12:56;;;;;;;0.20;0.20;;;14.30;99.90;;;;;;5072315;28;20037;-76
2021/07/09 05:15:22;;;;;;;2.17;0.50;;;14.20;99.90;;;;;;5066083;28;20483;-76
2021/07/09 05:17:48;;;;;;;0.00;0.00;;;14.30;99.90;;;;;;5070510;28;20112;-76
2021/07/09 05:20:14;;;;;;;0.15;0.10;;;14.30;99.90;;;;;;5070678;28;20021;-76
2021/07/09 05:22:40;;;;;;;0.20;0.20;;;14.40;99.90;;;;;;5071635;28;20384;-76
2021/07/09 05:25:07;;;;;;;0.32;0.17;;;14.50;99.90;;;;;;5073154;28;20101;-76
2021/07/09 05:27:33;;;;;;;0.08;0.08;;;14.40;99.90;;;;;;5072028;28;20026;-78
2021/07/09 05:29:59;;;;;;;0.20;0.20;;;14.40;99.90;;;;;;5069862;28;20095;-76
2021/07/09 05:32:27;;;;;;;0.10;0.10;;;14.40;99.90;;;;;;5070079;28;20032;-76
2021/07/09 05:34:54;;;;;;;0.00;0.00;;;14.30;99.90;;;;;;5069801;28;20116;-76
2021/07/09 05:37:21;;;;;;;0.90;0.28;;;14.40;99.90;;;;;;5075128;28;20024;-76
2021/07/09 05:39:48;;;;;;;0.10;0.10;;;14.40;99.90;;;;;;5070905;28;20024;-77
2021/07/09 05:42:14;;;;;;;0.20;0.20;;;14.40;99.90;;;;;;5071337;28;20024;-76
2021/07/09 05:44:41;;;;;;;0.05;0.05;;;14.50;99.90;;;;;;5070915;28;20017;-76
2021/07/09 05:47:07;;;;;;;0.00;0.00;;;14.60;99.90;;;;;;5071573;28;20071;-76
2021/07/09 05:49:33;;;;;;;0.20;0.10;;;14.70;99.90;;;;;;5069368;28;20031;-76
2021/07/09 05:51:59;;;;;;;0.22;0.22;;;14.80;99.90;;;;;;5070275;28;20076;-76
2021/07/09 05:54:25;;;;;;;0.13;0.13;;;14.80;99.90;;;;;;5070679;28;20029;-76
2021/07/09 05:56:52;;;;;;;2.40;2.28;;;14.80;99.90;;;;;;5071222;28;20016;-74
2021/07/09 05:59:18;;;;;;;0.00;0.00;;;14.70;99.90;;;;;;5071024;28;20026;-74
2021/07/09 06:01:44;;;;;;;0.20;0.20;;;14.80;99.90;;;;;;5069157;28;20025;-74
2021/07/09 06:04:10;;;;;;;0.17;0.17;;;14.80;99.90;;;;;;5069772;28;20442;-74
2021/07/09 06:06:36;;;;;;;0.00;0.00;;;14.60;99.90;;;;;;5068548;28;20371;-74
2021/07/09 06:09:02;;;;;;;0.00;0.00;;;14.50;99.90;;;;;;5071015;28;20099;-74
2021/07/09 06:11:29;;;;;;;0.10;0.10;;;14.70;99.90;;;;;;5070113;28;20472;-74
2021/07/09 06:13:55;;;;;;;0.20;0.20;;;14.60;99.90;;;;;;5071198;28;20032;-74
2021/07/09 06:16:21;;;;;;;0.10;0.10;;;14.60;99.90;;;;;;5069382;28;20028;-74
2021/07/09 06:18:47;;;;;;;0.20;0.20;;;14.70;99.90;;;;;;5067912;28;20028;-74
2021/07/09 06:21:12;;;;;;;0.15;0.15;;;14.80;99.90;;;;;;5070324;28;20021;-74
2021/07/09 06:23:38;;;;;;;0.17;0.17;;;14.80;99.90;;;;;;5069663;28;20507;-75
2021/07/09 06:26:04;;;;;;;0.08;0.08;;;14.90;99.90;;;;;;5069103;28;20028;-74
2021/07/09 06:28:29;;;;;;;0.10;0.10;;;15.00;99.90;;;;;;5071267;28;20021;-76
2021/07/09 06:30:55;;;;;;;0.45;0.45;;;15.10;99.90;;;;;;5069197;28;20032;-75
2021/07/09 06:33:21;;;;;;;0.10;0.10;;;15.00;99.90;;;;;;5070955;28;20029;-75
2021/07/09 06:35:47;;;;;;;0.10;0.10;;;15.00;99.90;;;;;;5068921;28;20025;-75
2021/07/09 06:38:12;;;;;;;0.10;0.10;;;15.10;99.90;;;;;;5069156;28;20025;-74
2021/07/09 06:40:39;;;;;;;0.10;0.10;;;15.20;99.90;;;;;;5070849;28;20361;-75
2021/07/09 06:43:05;;;;;;;0.00;0.00;;;15.40;99.90;;;;;;5053913;28;20123;-75
2021/07/09 06:45:31;;;;;;;0.20;0.20;;;15.50;99.90;;;;;;5071877;28;20329;-74
2021/07/09 06:47:57;;;;;;;0.25;0.25;;;15.40;99.90;;;;;;5072448;28;20104;-75
2021/07/09 06:50:23;;;;;;;0.10;0.10;;;15.40;99.90;;;;;;5069745;28;20028;-75
2021/07/09 06:52:48;;;;;;;0.20;0.20;;;15.40;99.90;;;;;;5067466;28;20499;-75
2021/07/09 06:55:15;;;;;;;0.05;0.05;;;15.20;99.90;;;;;;5070350;28;20036;-75
2021/07/09 06:57:46;;;;;;;0.10;0.10;;;15.20;99.90;;;;;;5070310;28;20479;-75
2021/07/09 07:00:17;;;;;;;0.10;0.10;;;15.10;99.90;;;;;;5069408;28;20565;-75
2021/07/09 07:02:44;;;;;;;0.15;0.15;;;15.10;99.90;;;;;;5068665;28;20125;-78
2021/07/09 07:05:10;;;;;;;0.10;0.10;;;15.10;99.90;;;;;;5070086;28;20019;-77
2021/07/09 07:07:37;;;;;;;0.00;0.00;;;15.00;99.90;;;;;;5068674;28;20054;-78
2021/07/09 07:10:05;;;;;;;0.10;0.10;;;15.00;99.90;;;;;;5069744;28;20024;-77
2021/07/09 07:12:31;;;;;;;0.30;0.30;;;14.90;99.90;;;;;;5068800;28;20028;-76
2021/07/09 07:14:56;;;;;;;0.10;0.10;;;14.70;99.90;;;;;;5069178;28;20025;-77
2021/07/09 07:17:22;;;;;;;0.20;0.20;;;14.80;99.90;;;;;;5052080;28;20107;-78
2021/07/09 07:19:48;;;;;;;0.00;0.00;;;14.80;99.90;;;;;;5052945;28;20430;-77
2021/07/09 07:22:14;;;;;;;0.00;0.00;;;14.80;99.90;;;;;;5068878;28;20376;-77
2021/07/09 07:24:39;;;;;;;0.20;0.20;;;14.90;99.90;;;;;;5069278;28;20020;-77
2021/07/09 07:27:06;;;;;;;0.17;0.17;;;14.90;99.90;;;;;;5069916;28;20415;-77
2021/07/09 07:29:31;;;;;;;0.10;0.10;;;14.90;99.90;;;;;;5071205;28;20017;-77
2021/07/09 07:31:58;;;;;;;1.10;0.47;;;15.10;99.90;;;;;;5072335;28;20017;-77
2021/07/09 07:34:23;;;;;;;0.17;0.17;;;15.00;99.90;;;;;;5072967;28;20021;-77
2021/07/09 07:36:49;;;;;;;0.30;0.20;;;15.00;99.90;;;;;;5073684;28;20039;-78
2021/07/09 07:39:16;;;;;;;0.10;0.10;;;14.80;99.90;;;;;;5055984;28;20059;-76
2021/07/09 07:41:42;;;;;;;3.72;0.50;;;14.80;99.90;;;;;;5073487;28;20103;-77
2021/07/09 07:44:08;;;;;;;0.20;0.20;;;14.80;99.90;;;;;;5073655;28;20110;-78
2021/07/09 07:46:34;;;;;;;0.10;0.10;;;14.90;99.90;;;;;;5071949;28;20020;-76
2021/07/09 07:49:01;;;;;;;0.00;0.00;;;15.00;99.90;;;;;;5073735;28;20074;-77
2021/07/09 07:51:27;;;;;;;0.25;0.25;;;15.00;99.90;;;;;;5071772;28;20037;-76
2021/07/09 07:53:53;;;;;;;1.30;1.23;;;14.90;99.90;;;;;;5072581;28;20048;-76
2021/07/09 07:56:19;;;;;;;0.20;0.20;;;14.90;99.90;;;;;;5073015;28;20519;-76
2021/07/09 07:58:45;;;;;;;0.20;0.20;;;15.00;99.90;;;;;;5055434;28;20033;-77
2021/07/09 08:01:12;;;;;;;4.13;0.60;;;15.10;99.90;;;;;;5055755;28;20029;-77
2021/07/09 08:03:38;;;;;;;0.10;0.10;;;15.00;99.90;;;;;;5071512;28;20036;-77
2021/07/09 08:06:04;;;;;;;0.00;0.00;;;15.10;99.90;;;;;;5074175;28;20064;-77
2021/07/09 08:08:31;;;;;;;0.20;0.20;;;15.10;99.90;;;;;;5073009;28;20020;-77
2021/07/09 08:10:58;;;;;;;0.50;0.50;;;15.10;99.90;;;;;;5072250;28;20388;-78
2021/07/09 08:13:24;;;;;;;0.13;0.13;;;15.10;99.90;;;;;;5068006;28;20028;-76
2021/07/09 08:15:50;;;;;;;0.10;0.10;;;15.20;99.90;;;;;;5055670;28;20036;-77
2021/07/09 08:18:16;;;;;;;0.00;0.00;;;15.20;99.90;;;;;;5071336;28;20082;-77
2021/07/09 08:20:45;;;;;;;0.80;0.80;;;15.20;99.90;;;;;;5072543;28;20074;-77
2021/07/09 08:23:11;;;;;;;1.45;0.45;;;14.90;99.90;;;;;;5072227;28;20025;-77
2021/07/09 08:25:36;;;;;;;0.20;0.17;;;14.80;99.90;;;;;;5057120;28;20024;-81
2021/07/09 08:28:03;;;;;;;0.35;0.35;;;14.90;99.90;;;;;;5060085;28;20021;-81
2021/07/09 08:30:28;;;;;;;0.50;0.50;;;14.80;99.90;;;;;;5058894;28;20044;-78
2021/07/09 08:32:54;;;;;;;0.40;0.40;;;14.70;99.90;;;;;;5077355;28;20020;-81
2021/07/09 08:35:20;;;;;;;0.00;0.00;;;14.80;99.90;;;;;;5057205;28;20502;-78
2021/07/09 08:37:46;;;;;;;0.20;0.20;;;14.90;99.90;;;;;;5071124;28;20028;-76
2021/07/09 08:40:12;;;;;;;4.30;0.50;;;14.90;99.90;;;;;;5054499;28;20039;-77
2021/07/09 08:42:39;;;;;;;1.08;0.75;;;15.00;99.90;;;;;;5066248;28;20032;-77
2021/07/09 08:45:06;;;;;;;0.30;0.30;;;15.10;99.90;;;;;;5072966;28;20039;-77
2021/07/09 08:47:34;;;;;;;0.55;0.45;;;15.00;99.90;;;;;;5071000;28;20029;-76
2021/07/09 08:50:02;;;;;;;0.57;0.57;;;15.00;99.90;;;;;;5072878;28;20074;-77
2021/07/09 08:52:28;;;;;;;0.80;0.80;;;14.90;99.90;;;;;;5071861;28;20013;-76
2021/07/09 08:54:54;;;;;;;0.20;0.20;;;14.80;99.90;;;;;;5068794;28;20021;-77
2021/07/09 08:57:20;;;;;;;0.32;0.32;;;14.70;99.90;;;;;;5071884;28;20042;-77
2021/07/09 08:59:45;;;;;;;0.55;0.45;;;14.70;99.90;;;;;;5072900;28;20070;-76
2021/07/09 09:02:11;;;;;;;0.38;0.20;;;14.70;99.90;;;;;;5071016;28;20025;-76
2021/07/09 09:04:38;;;;;;;0.50;0.50;;;14.70;99.90;;;;;;5072548;28;20074;-77
2021/07/09 09:07:04;;;;;;;0.10;0.10;;;14.70;99.90;;;;;;5055324;28;20438;-77
2021/07/09 09:09:31;;;;;;;1.27;0.40;;;14.80;99.90;;;;;;5072032;28;20026;-77
2021/07/09 09:12:04;;;;;;;0.32;0.32;;;14.70;99.90;;;;;;5072158;28;20032;-77
2021/07/09 09:14:32;;;;;;;0.55;0.55;;;14.70;99.90;;;;;;5071874;28;20154;-76
2021/07/09 09:16:58;;;;;;;0.47;0.30;;;14.50;99.90;;;;;;5075650;28;20054;-78
2021/07/09 09:19:24;;;;;;;0.00;0.00;;;14.60;99.90;;;;;;5071866;28;20099;-76
2021/07/09 09:22:11;;;;;;;0.55;0.55;;;14.60;99.90;;;;;;5054396;28;20027;-76
2021/07/09 09:24:38;;;;;;;0.43;0.43;;;14.50;99.90;;;;;;5071496;28;20024;-77
2021/07/09 09:27:18;;;;;;;0.80;0.80;;;14.60;99.90;;;;;;5068152;28;20419;-78
2021/07/09 09:29:44;;;;;;;0.28;0.28;;;14.50;99.90;;;;;;5072996;28;20024;-78
2021/07/09 09:32:10;;;;;;;0.00;0.00;;;14.50;99.90;;;;;;5054314;28;20027;-76
2021/07/09 09:34:37;;;;;;;0.70;0.70;;;14.50;99.90;;;;;;5070085;28;20020;-76
2021/07/09 09:37:03;;;;;;;0.10;0.10;;;14.50;99.90;;;;;;5070621;28;20021;-76
2021/07/09 09:39:29;;;;;;;0.60;0.50;;;14.40;99.90;;;;;;5069770;28;20025;-76
2021/07/09 09:42:08;;;;;;;0.10;0.10;;;14.40;99.90;;;;;;5070444;28;20198;-76
2021/07/09 09:44:34;;;;;;;0.40;0.40;;;14.40;99.90;;;;;;5054689;28;20143;-78
2021/07/09 09:47:14;;;;;;;5.63;1.63;;;14.40;99.90;;;;;;5073714;28;20044;-76
2021/07/09 09:49:42;;;;;;;0.32;0.30;;;14.60;99.90;;;;;;5069794;28;20024;-76
2021/07/09 09:52:08;;;;;;;0.22;0.22;;;14.60;99.90;;;;;;5053188;28;20020;-76
2021/07/09 09:54:34;;;;;;;1.50;0.70;;;14.70;99.90;;;;;;5070255;28;20031;-76
2021/07/09 09:57:00;;;;;;;0.40;0.40;;;14.80;99.90;;;;;;5054083;28;20056;-76
2021/07/09 09:59:27;;;;;;;0.10;0.10;;;14.60;99.90;;;;;;5069834;28;20147;-77
2021/07/09 10:01:56;;;;;;;0.52;0.38;;;14.70;99.90;;;;;;5053480;28;20064;-77
2021/07/09 10:04:23;;;;;;;0.43;0.22;;;14.70;99.90;;;;;;5069673;28;20127;-77
2021/07/09 10:06:50;;;;;;;0.63;0.60;;;14.60;99.90;;;;;;5073660;28;20377;-74
2021/07/09 10:09:17;;;;;;;0.43;0.43;;;14.70;99.90;;;;;;5070813;28;20089;-74
2021/07/09 10:11:44;;;;;;;0.38;0.38;;;14.70;99.90;;;;;;5053452;28;20106;-74
2021/07/09 10:14:12;;;;;;;1.75;0.68;;;14.70;99.90;;;;;;5069011;28;20020;-74
2021/07/09 10:16:39;;;;;;;3.60;1.25;;;14.60;99.90;;;;;;5070434;28;20024;-73
2021/07/09 10:19:11;;;;;;;0.15;0.15;;;14.60;99.90;;;;;;5053401;28;20029;-74
2021/07/09 10:21:38;;;;;;;0.52;0.52;;;14.50;99.90;;;;;;5071034;28;20036;-74
2021/07/09 10:24:08;;;;;;;0.20;0.20;;;14.50;99.90;;;;;;5103803;22;20049;-76
2021/07/09 10:26:41;;;;;;;0.17;0.17;;;14.50;99.90;;;;;;5040039;28;20025;-77
2021/07/09 10:29:11;;;;;;;0.55;0.55;;;14.70;99.90;;;;;;5050510;28;20481;-75
2021/07/09 10:31:38;;;;;;;0.47;0.47;;;14.70;99.90;;;;;;5049333;28;20028;-77
2021/07/09 10:34:24;;;;;;;0.17;0.17;;;14.70;99.90;;;;;;5050319;28;20036;-75
2021/07/09 10:36:54;;;;;;;0.45;0.38;;;14.80;99.90;;;;;;5049563;28;20094;-76
2021/07/09 10:39:51;;;;;;;0.40;0.22;;;14.90;99.90;;;;;;5049975;28;20484;-75
2021/07/09 10:42:38;;;;;;;0.28;0.28;;;14.90;99.90;;;;;;5047389;28;20037;-76
2021/07/09 10:45:23;;;;;;;1.25;1.02;;;14.80;99.90;;;;;;5033783;28;20053;-75
2021/07/09 10:47:54;;;;;;;1.42;1.33;;;14.90;99.90;;;;;;5051554;28;20017;-76
2021/07/09 10:50:35;;;;;;;0.50;0.50;;;14.80;99.90;;;;;;5051793;28;20377;-75
2021/07/09 10:53:04;;;;;;;0.00;0.00;;;14.80;99.90;;;;;;5050973;28;20476;-75
2021/07/09 10:55:37;;;;;;;0.40;0.40;;;14.80;99.90;;;;;;5050629;28;20032;-76
2021/07/09 10:58:17;;;;;;;0.03;0.03;;;14.90;99.90;;;;;;5050400;28;20100;-75
2021/07/09 11:00:55;;;;;;;0.10;0.10;;;15.00;99.90;;;;;;5050468;28;20049;-75
2021/07/09 11:03:38;;;;;;;0.65;0.52;;;15.10;99.90;;;;;;5050138;28;20025;-76
2021/07/09 11:06:05;;;;;;;0.10;0.10;;;15.00;99.90;;;;;;5053581;28;20079;-76
2021/07/09 11:08:34;;;;;;;0.10;0.10;;;15.10;99.90;;;;;;5054040;28;20219;-77
2021/07/09 11:11:08;;;;;;;0.40;0.40;;;15.00;99.90;;;;;;5054012;28;20116;-75
2021/07/09 11:13:40;;;;;;;0.38;0.38;;;15.00;99.90;;;;;;5055333;28;20067;-75
2021/07/09 11:16:26;;;;;;;;;;;15.10;99.90;;;;;;5055597;28;20033;-76
2021/07/09 11:18:59;;;;;;;0.88;0.80;;;15.20;99.90;;;;;;5054225;28;19962;-76
2021/07/09 11:21:31;;;;;;;0.10;0.10;;;15.40;99.90;;;;;;5055102;28;20108;-75
2021/07/09 11:23:57;;;;;;;;;;;15.60;99.90;;;;;;5055242;28;20389;-76
2021/07/09 11:26:25;;;;;;;0.00;0.00;;;15.70;99.90;;;;;;5053857;28;20004;-76
2021/07/09 11:28:50;;;;;;;0.30;0.30;;;15.70;99.90;;;;;;5054831;28;20021;-76
2021/07/09 11:31:45;;;;;;;0.30;0.30;;;15.60;99.90;;;;;;5053511;28;20036;-76
2021/07/09 11:34:14;;;;;;;0.20;0.20;;;15.60;99.90;;;;;;5044993;28;20037;-77
2021/07/09 11:36:54;;;;;;;0.45;0.45;;;15.50;99.90;;;;;;5053576;28;20029;-76
2021/07/09 11:39:30;;;;;;;0.17;0.17;;;15.60;99.90;;;;;;5048872;28;20075;-76
2021/07/09 11:42:05;;;;;;;0.13;0.13;;;15.80;99.90;;;;;;5040029;28;20377;-76
2021/07/09 11:44:44;;;;;;;0.10;0.10;;;16.10;99.90;;;;;;5037342;28;20026;-76
2021/07/09 11:47:13;;;;;;;0.25;0.25;;;16.10;99.90;;;;;;5019814;28;20081;-75
2021/07/09 11:49:50;;;;;;;0.00;0.00;;;16.60;99.90;;;;;;5053330;28;20396;-76
2021/07/09 11:52:24;;;;;;;0.32;0.32;;;16.90;99.90;;;;;;5052558;28;20036;-76
2021/07/09 11:54:51;;;;;;;0.03;0.03;;;16.90;99.90;;;;;;5054506;28;20454;-76
2021/07/09 11:57:26;;;;;;;0.35;0.32;;;16.90;99.90;;;;;;5052004;28;20052;-76
2021/07/09 11:59:54;;;;;;;0.70;0.70;;;17.30;99.90;;;;;;5053156;28;20400;-74
2021/07/09 12:02:22;;;;;;;0.38;0.38;;;17.40;99.90;;;;;;5053536;28;20104;-74
2021/07/09 12:04:51;;;;;;;0.08;0.08;;;17.60;99.90;;;;;;5052940;28;20025;-74
2021/07/09 12:07:20;;;;;;;0.10;0.10;;;17.50;99.90;;;;;;5034237;28;20026;-74
2021/07/09 12:09:57;;;;;;;0.10;0.10;;;17.70;99.90;;;;;;5034139;28;20409;-74
2021/07/09 12:12:25;;;;;;;0.65;0.65;;;17.90;99.90;;;;;;5034382;28;20018;-74
2021/07/09 12:15:01;;;;;;;0.88;0.85;;;17.90;99.90;;;;;;5034316;28;20028;-74
2021/07/09 12:17:37;;;;;;;0.20;0.20;;;17.90;99.90;;;;;;5034216;28;20048;-74
2021/07/09 12:20:15;;;;;;;0.80;0.70;;;17.90;99.90;;;;;;5034192;28;20021;-75
2021/07/09 12:23:00;;;;;;;0.30;0.30;;;18.30;99.90;;;;;;5032710;28;20439;-75
2021/07/09 12:25:33;;;;;;;0.50;0.50;;;18.60;99.90;;;;;;5034262;28;20064;-74
2021/07/09 12:28:01;;;;;;;0.90;0.70;;;18.70;99.90;;;;;;5016353;28;20025;-75
2021/07/09 12:30:34;;;;;;;0.32;0.32;;;18.80;99.90;;;;;;5032851;28;20079;-75
2021/07/09 12:33:28;;;;;;;0.38;0.38;;;18.90;99.90;;;;;;5032596;28;20029;-75
2021/07/09 12:36:02;;;;;;;0.50;0.50;;;18.90;99.90;;;;;;5033009;28;20030;-75
2021/07/09 12:38:39;;;;;;;1.15;0.68;;;19.00;99.90;;;;;;5032490;28;20025;-74
2021/07/09 12:41:07;;;;;;;0.20;0.20;;;18.90;99.90;;;;;;5033801;28;20056;-74
2021/07/09 12:43:49;;;;;;;0.70;0.70;;;19.00;99.90;;;;;;5033691;28;20489;-74
2021/07/09 12:46:20;;;;;;;0.10;0.10;;;18.90;99.90;;;;;;5033879;28;20481;-75
2021/07/09 12:48:57;;;;;;;0.90;0.52;;;19.00;99.90;;;;;;5033722;28;20017;-75
2021/07/09 12:51:35;;;;;;;0.85;0.35;;;19.10;99.90;;;;;;5032606;28;20030;-74
2021/07/09 12:54:05;;;;;;;0.73;0.68;;;19.00;99.90;;;;;;5015976;28;20121;-75
2021/07/09 12:56:33;;;;;;;0.65;0.57;;;18.90;99.90;;;;;;5033383;28;20492;-74